Time;durP1;ratioP1;P1;durP2;ratioP2;P2;SDS_P1;SDS_P2;PMS_P1;PMS_P2;Temp;Humidity;BMP_temperature;BMP_pressure;BME280_temperature;BME280_humidity;BME280_pressure;Samples;Min_cycle;Max_cycle;Signal;HPM_P1;HPM_P2
2021/12/01 00:00:33;;;;;;;7.40;2.10;;;2.60;99.90;;;2.45;75.24;99871.91;5086739;28;20246;-70
2021/12/01 00:03:02;;;;;;;3.90;2.33;;;2.60;99.90;;;2.59;74.95;99878.34;5089157;28;20203;-69
2021/12/01 00:05:34;;;;;;;6.60;1.98;;;2.70;99.90;;;2.57;75.16;99875.00;5077080;28;20202;-69
2021/12/01 00:08:06;;;;;;;7.53;2.08;;;2.70;14.00;;;2.68;74.54;99876.44;5092045;28;20652;-70
2021/12/01 00:10:37;;;;;;;8.20;2.38;;;2.70;1.00;;;2.63;74.24;99874.31;5075589;28;20184;-70
2021/12/01 00:13:09;;;;;;;10.85;2.95;;;2.70;1.00;;;2.67;74.16;99875.59;5075101;28;20274;-70
2021/12/01 00:15:39;;;;;;;5.43;2.15;;;2.80;1.00;;;2.62;74.24;99867.28;5076383;28;20176;-69
2021/12/01 00:18:08;;;;;;;4.28;2.35;;;2.80;1.00;;;2.59;74.53;99863.16;5076267;28;20184;-70
2021/12/01 00:20:39;;;;;;;11.93;2.70;;;2.70;1.00;;;2.49;74.60;99854.53;5076307;28;20210;-70
2021/12/01 00:23:09;;;;;;;4.55;3.03;;;2.70;1.00;;;2.46;74.80;99865.56;5075411;28;20212;-70
2021/12/01 00:25:42;;;;;;;8.68;2.90;;;2.70;1.00;;;2.57;75.27;99846.47;5075792;28;20263;-70
2021/12/01 00:28:11;;;;;;;6.97;3.15;;;2.70;1.00;;;2.58;74.98;99841.94;5075292;28;20200;-71
2021/12/01 00:30:41;;;;;;;7.78;3.15;;;2.70;1.00;;;2.75;74.08;99846.19;5075539;28;20173;-70
2021/12/01 00:33:12;;;;;;;6.30;2.17;;;2.80;1.00;;;2.90;73.46;99839.06;5075420;28;20216;-71
2021/12/01 00:35:43;;;;;;;8.07;3.30;;;2.90;99.90;;;2.86;73.37;99848.44;5075865;28;20168;-70
2021/12/01 00:38:13;;;;;;;7.47;2.35;;;2.90;99.90;;;2.82;73.32;99835.59;5074607;28;20234;-71
2021/12/01 00:40:43;;;;;;;8.55;2.78;;;2.90;99.90;;;2.97;72.96;99845.34;5075227;28;20299;-70
2021/12/01 00:43:16;;;;;;;14.18;2.50;;;3.00;99.90;;;3.00;72.47;99850.31;5075395;28;20215;-70
2021/12/01 00:45:54;;;;;;;7.82;1.60;;;3.10;69.10;;;2.95;73.40;99852.69;5075580;28;20172;-71
2021/12/01 00:48:23;;;;;;;9.00;2.50;;;3.00;1.00;;;2.86;72.98;99855.63;5075570;28;20171;-70
2021/12/01 00:50:54;;;;;;;10.70;2.28;;;3.00;1.00;;;2.94;73.43;99856.41;5075844;28;20187;-70
2021/12/01 00:53:23;;;;;;;11.85;2.72;;;3.00;1.00;;;2.86;73.24;99869.81;5074389;28;20593;-70
2021/12/01 00:55:52;;;;;;;6.22;2.47;;;3.00;2.90;;;2.87;73.61;99859.97;5078250;28;20176;-71
2021/12/01 00:58:22;;;;;;;11.18;2.65;;;2.90;55.40;;;2.84;74.06;99858.47;5076335;28;20640;-71
2021/12/01 01:00:51;;;;;;;11.23;2.60;;;2.90;99.90;;;3.09;73.75;99855.63;5075014;28;20632;-70
2021/12/01 01:03:20;;;;;;;10.80;2.97;;;3.00;99.90;;;3.06;73.90;99852.28;5073737;28;20227;-70
2021/12/01 01:05:50;;;;;;;7.07;2.72;;;3.10;90.00;;;2.94;74.27;99852.91;5074956;28;20179;-70
2021/12/01 01:08:21;;;;;;;11.73;2.58;;;3.10;38.60;;;3.07;74.23;99845.13;5074926;28;20200;-69
2021/12/01 01:16:22;;;;;;;17.48;3.53;;;3.10;99.90;;;3.08;74.20;99836.09;5074937;28;20172;-72
2021/12/01 01:16:46;;;;;;;10.95;2.83;;;3.20;99.90;;;3.14;74.31;99829.19;5074348;28;20219;-70
2021/12/01 01:19:17;;;;;;;7.88;2.28;;;3.20;99.90;;;3.10;74.59;99823.34;5073569;28;20204;-71
2021/12/01 01:21:49;;;;;;;8.90;2.65;;;3.20;99.90;;;3.19;74.19;99824.13;5074662;28;20263;-70
2021/12/01 01:24:22;;;;;;;8.30;2.85;;;3.30;99.90;;;3.19;74.36;99822.31;5074158;28;20216;-70
2021/12/01 01:26:52;;;;;;;10.15;4.18;;;3.30;99.90;;;3.15;74.93;99820.19;5074387;28;20191;-70
2021/12/01 01:29:22;;;;;;;13.73;4.03;;;3.30;99.90;;;3.03;75.22;99817.91;5074882;28;20184;-71
2021/12/01 01:31:54;;;;;;;13.45;3.83;;;3.20;99.90;;;3.13;75.44;99808.81;5074425;28;20658;-71
2021/12/01 01:34:24;;;;;;;19.77;3.38;;;3.20;99.90;;;3.33;74.90;99818.00;5073896;28;20230;-71
2021/12/01 01:36:54;;;;;;;11.38;2.80;;;3.30;1.00;;;3.40;74.49;99808.22;5074021;28;20165;-69
2021/12/01 01:39:25;;;;;;;12.45;4.20;;;3.40;99.90;;;3.36;74.63;99809.59;5075674;28;20215;-70
2021/12/01 01:41:54;;;;;;;11.30;3.75;;;3.40;99.90;;;3.26;75.47;99801.84;5075246;28;20283;-70
2021/12/01 01:44:23;;;;;;;14.95;4.32;;;3.40;99.90;;;3.14;75.82;99797.13;5074155;28;20232;-70
2021/12/01 01:46:52;;;;;;;13.70;4.43;;;3.30;99.90;;;3.49;74.93;99785.72;5073941;28;20537;-69
2021/12/01 01:49:33;;;;;;;21.27;4.05;;;3.40;1.00;;;3.50;74.33;99779.38;5074397;28;20226;-72
2021/12/01 01:52:02;;;;;;;7.68;3.45;;;3.50;99.90;;;3.28;75.52;99775.75;5074544;28;20660;-71
2021/12/01 01:54:33;;;;;;;9.45;3.00;;;3.40;99.90;;;3.19;75.68;99773.34;5074329;28;20279;-71
2021/12/01 01:57:02;;;;;;;9.75;3.58;;;3.30;99.90;;;3.37;75.13;99763.97;5073343;28;20188;-70
2021/12/01 01:59:30;;;;;;;16.00;3.95;;;3.40;1.00;;;3.41;75.22;99757.22;5075610;28;20184;-70
2021/12/01 02:02:01;;;;;;;14.25;3.70;;;3.50;99.90;;;3.43;75.19;99754.38;5077805;28;20188;-70
2021/12/01 02:04:33;;;;;;;14.43;3.90;;;3.50;99.90;;;3.47;74.95;99753.00;5078512;28;20234;-71
2021/12/01 02:07:04;;;;;;;13.13;3.92;;;3.50;99.90;;;3.44;75.48;99745.31;5076412;28;20173;-72
2021/12/01 02:09:34;;;;;;;10.65;3.30;;;3.50;99.90;;;3.41;75.46;99740.34;5074613;28;20227;-71
2021/12/01 02:12:05;;;;;;;18.50;3.92;;;3.50;99.90;;;3.44;75.28;99737.31;5075328;28;20377;-71
2021/12/01 02:14:34;;;;;;;13.18;3.22;;;3.50;99.90;;;3.38;76.09;99725.53;5074294;28;20300;-71
2021/12/01 02:17:03;;;;;;;18.80;3.40;;;3.50;1.00;;;3.49;75.45;99721.53;5074207;28;20211;-70
2021/12/01 02:19:32;;;;;;;7.38;2.72;;;3.50;1.00;;;3.35;75.91;99719.69;5073443;28;20195;-70
2021/12/01 02:22:02;;;;;;;17.23;4.05;;;3.50;1.00;;;3.36;76.04;99708.00;5075163;28;20192;-70
2021/12/01 02:24:31;;;;;;;9.32;3.17;;;3.50;1.00;;;3.47;75.67;99696.84;5074281;28;20230;-70
2021/12/01 02:27:00;;;;;;;11.63;4.07;;;3.60;1.00;;;3.38;75.67;99687.25;5074691;28;20226;-71
2021/12/01 02:29:28;;;;;;;18.05;3.53;;;3.50;99.90;;;3.24;76.35;99680.06;5074956;28;20274;-71
2021/12/01 02:31:57;;;;;;;13.57;3.85;;;3.40;1.00;;;3.16;77.03;99677.47;5075392;28;20268;-71
2021/12/01 02:34:27;;;;;;;13.02;3.53;;;3.30;1.00;;;3.33;76.51;99660.25;5076498;28;20251;-71
2021/12/01 02:36:59;;;;;;;16.23;4.32;;;3.40;99.90;;;3.26;76.94;99656.63;5080339;28;20211;-70
2021/12/01 02:39:29;;;;;;;11.07;3.45;;;3.40;1.00;;;3.43;76.96;99653.59;5081141;28;20188;-71
2021/12/01 02:42:05;;;;;;;13.00;2.97;;;3.50;1.00;;;3.59;76.00;99663.22;5080319;28;20176;-71
2021/12/01 02:44:35;;;;;;;20.13;4.78;;;3.50;1.00;;;3.62;75.85;99657.53;5078573;28;20203;-71
2021/12/01 02:47:05;;;;;;;19.38;4.03;;;3.60;1.00;;;3.66;75.77;99652.63;5073988;28;20279;-71
2021/12/01 02:49:34;;;;;;;9.75;3.75;;;3.60;99.90;;;3.60;75.96;99654.19;5074911;28;20198;-70
2021/12/01 02:52:03;;;;;;;14.30;3.53;;;3.70;99.90;;;3.52;76.68;99645.47;5073921;28;20342;-72
2021/12/01 02:54:33;;;;;;;10.75;3.47;;;3.60;99.90;;;3.43;77.02;99647.41;5073386;28;20766;-71
2021/12/01 02:57:02;;;;;;;14.88;3.40;;;3.50;99.90;;;3.55;76.60;99639.72;5073655;28;20176;-71
2021/12/01 02:59:31;;;;;;;11.95;4.93;;;3.60;1.00;;;3.65;76.49;99641.09;5073534;28;20210;-70
2021/12/01 03:02:01;;;;;;;12.20;3.88;;;3.60;1.00;;;3.77;76.08;99634.25;5073793;28;20177;-71
2021/12/01 03:04:31;;;;;;;11.85;3.70;;;3.70;1.00;;;3.65;76.27;99625.03;5073050;28;20619;-69
2021/12/01 03:07:01;;;;;;;11.02;3.67;;;3.70;99.90;;;3.69;76.71;99626.31;5072975;28;20237;-71
2021/12/01 03:09:31;;;;;;;14.00;5.25;;;3.70;1.00;;;3.77;76.56;99612.84;5072469;28;20706;-71
2021/12/01 03:12:01;;;;;;;9.13;3.65;;;3.70;1.00;;;3.67;77.05;99615.00;5076862;28;20180;-70
2021/12/01 03:14:30;;;;;;;16.83;4.15;;;3.70;1.00;;;3.89;76.39;99611.31;5077241;28;20215;-72
2021/12/01 03:16:58;;;;;;;11.95;3.30;;;3.80;31.50;;;3.93;76.30;99604.56;5077310;28;20235;-71
2021/12/01 03:19:27;;;;;;;9.73;3.80;;;3.90;1.00;;;3.85;76.58;99604.69;5075588;28;20196;-70
2021/12/01 03:21:56;;;;;;;16.45;3.70;;;3.90;1.00;;;4.04;76.12;99602.38;5077124;28;20188;-72
2021/12/01 03:24:25;;;;;;;10.40;2.75;;;4.00;1.00;;;4.06;76.10;99589.66;5077527;28;20241;-69
2021/12/01 03:26:54;;;;;;;29.33;4.72;;;4.10;1.00;;;4.03;75.92;99590.84;5076592;28;20279;-71
2021/12/01 03:29:24;;;;;;;10.70;3.30;;;4.00;99.90;;;4.16;75.74;99590.16;5075315;28;20196;-70
2021/12/01 03:31:53;;;;;;;9.10;2.40;;;4.10;99.90;;;4.03;76.15;99590.03;5077149;28;20176;-71
2021/12/01 03:34:24;;;;;;;10.73;3.00;;;4.00;18.10;;;3.95;76.44;99588.31;5075186;28;20220;-70
2021/12/01 03:36:53;;;;;;;7.40;3.00;;;4.00;99.90;;;3.87;76.56;99578.53;5076298;28;20226;-70
2021/12/01 03:39:23;;;;;;;10.43;3.92;;;4.00;99.90;;;4.12;76.14;99580.84;5076273;28;20168;-70
2021/12/01 03:41:52;;;;;;;11.05;3.00;;;4.00;1.00;;;4.15;75.93;99570.59;5076339;28;20270;-70
2021/12/01 03:44:21;;;;;;;13.05;3.53;;;4.10;99.90;;;4.10;75.92;99569.50;5075907;28;20208;-70
2021/12/01 03:46:51;;;;;;;12.82;4.00;;;4.10;99.90;;;4.00;76.57;99564.47;5074956;28;20198;-70
2021/12/01 03:49:21;;;;;;;12.75;2.90;;;4.00;99.90;;;4.16;75.78;99566.06;5075267;28;20194;-69
2021/12/01 03:51:50;;;;;;;16.20;4.47;;;4.10;99.90;;;4.07;76.08;99560.00;5076087;28;20603;-70
2021/12/01 03:54:18;;;;;;;15.05;3.92;;;4.10;99.90;;;4.11;76.27;99555.09;5075559;28;20303;-71
2021/12/01 03:56:47;;;;;;;15.43;3.97;;;4.10;99.90;;;4.01;76.32;99550.09;5076613;28;20191;-71
2021/12/01 03:59:16;;;;;;;15.98;3.63;;;4.00;99.90;;;4.07;76.24;99548.47;5075429;28;20199;-71
2021/12/01 04:01:45;;;;;;;17.23;4.45;;;4.10;99.90;;;4.13;76.65;99539.66;5076527;28;20755;-70
2021/12/01 04:04:15;;;;;;;7.72;3.58;;;4.00;1.00;;;4.31;75.94;99548.88;5075553;28;20212;-70
2021/12/01 04:06:44;;;;;;;19.48;5.30;;;4.20;1.00;;;4.35;75.71;99533.25;5074050;28;20188;-70
2021/12/01 04:09:13;;;;;;;7.93;3.22;;;4.30;99.90;;;4.21;76.13;99535.00;5075182;28;20177;-70
2021/12/01 04:11:41;;;;;;;14.32;3.05;;;4.20;99.90;;;4.02;76.62;99526.81;5075076;28;20180;-70
2021/12/01 04:14:10;;;;;;;13.73;3.70;;;4.10;99.90;;;4.10;76.90;99526.69;5074592;28;20627;-70
2021/12/01 04:16:39;;;;;;;17.02;4.55;;;4.10;1.00;;;4.09;76.49;99519.66;5074960;28;20196;-70
2021/12/01 04:19:08;;;;;;;9.80;3.80;;;4.10;1.00;;;4.08;76.55;99518.81;5075186;28;20238;-70
2021/12/01 04:21:41;;;;;;;13.77;3.25;;;4.10;1.00;;;4.17;76.48;99516.84;5090416;28;20200;-71
2021/12/01 04:24:10;;;;;;;11.50;3.65;;;4.10;1.00;;;4.23;76.51;99510.72;5075075;28;20211;-71
2021/12/01 04:26:39;;;;;;;13.98;3.72;;;4.10;1.00;;;4.30;75.93;99492.84;5075034;28;20180;-71
2021/12/01 04:29:08;;;;;;;12.18;3.25;;;4.20;99.90;;;4.33;75.90;99495.13;5074031;28;20191;-71
2021/12/01 04:31:40;;;;;;;10.32;6.15;;;4.20;99.90;;;4.41;75.57;99491.44;5075697;28;20222;-71
2021/12/01 04:34:10;;;;;;;10.77;2.88;;;4.30;74.10;;;4.17;76.46;99490.06;5073775;28;20246;-70
2021/12/01 04:36:42;;;;;;;13.35;3.50;;;4.20;20.90;;;4.16;76.41;99477.72;5075275;28;20260;-70
2021/12/01 04:39:14;;;;;;;12.43;2.88;;;4.10;99.90;;;4.23;76.42;99471.38;5075759;28;20168;-71
2021/12/01 04:41:51;;;;;;;18.58;5.32;;;4.20;99.90;;;4.19;76.68;99467.44;5075253;28;20194;-71
2021/12/01 04:44:23;;;;;;;11.95;3.55;;;4.20;1.00;;;4.29;76.86;99456.38;5075350;28;20212;-71
2021/12/01 04:46:56;;;;;;;7.57;3.53;;;4.20;99.90;;;4.23;76.94;99446.44;5075715;28;20173;-71
2021/12/01 04:49:26;;;;;;;14.73;4.10;;;4.20;1.00;;;4.32;77.22;99439.91;5073778;28;20712;-69
2021/12/01 04:51:59;;;;;;;19.65;4.22;;;4.30;99.90;;;4.39;77.32;99424.72;5075221;28;20187;-70
2021/12/01 04:54:29;;;;;;;7.57;3.30;;;4.30;1.00;;;4.22;77.97;99428.72;5075487;28;20227;-70
2021/12/01 04:56:59;;;;;;;13.45;2.95;;;4.20;1.00;;;4.16;78.01;99424.19;5076190;28;20219;-68
2021/12/01 04:59:28;;;;;;;16.45;3.60;;;4.20;1.00;;;4.09;78.60;99408.06;5075285;28;20283;-70
2021/12/01 05:01:57;;;;;;;7.82;2.53;;;4.10;99.90;;;4.08;79.13;99405.56;5075036;28;20228;-71
2021/12/01 05:04:26;;;;;;;11.77;4.97;;;4.10;1.00;;;4.26;78.32;99397.88;5075731;28;20204;-70
2021/12/01 05:06:56;;;;;;;8.07;4.03;;;4.10;1.00;;;4.22;78.46;99391.22;5079833;28;20200;-70
2021/12/01 05:09:25;;;;;;;14.55;4.88;;;4.10;82.30;;;4.28;78.30;99380.56;5086919;28;20184;-71
2021/12/01 05:11:54;;;;;;;7.28;4.32;;;4.20;1.00;;;4.17;79.14;99377.63;5085496;28;20176;-70
2021/12/01 05:14:25;;;;;;;8.20;4.45;;;4.10;1.00;;;4.14;79.14;99372.66;5084567;28;20216;-70
2021/12/01 05:16:54;;;;;;;11.63;3.90;;;4.10;99.90;;;4.07;79.45;99377.13;5086314;28;20188;-69
2021/12/01 05:19:23;;;;;;;15.60;4.13;;;4.10;1.00;;;4.18;79.20;99368.56;5086403;28;20215;-71
2021/12/01 05:21:52;;;;;;;12.10;4.90;;;4.10;46.50;;;4.21;79.54;99349.44;5080814;28;20287;-70
2021/12/01 05:24:22;;;;;;;6.68;3.63;;;4.10;99.90;;;4.13;79.60;99349.59;5073773;28;20685;-69
2021/12/01 05:26:51;;;;;;;14.32;3.83;;;4.10;99.90;;;4.07;79.77;99351.19;5073870;28;20188;-71
2021/12/01 05:29:23;;;;;;;23.52;4.47;;;4.10;1.00;;;4.17;80.02;99342.81;5072593;28;20206;-70
2021/12/01 05:31:53;;;;;;;15.23;3.33;;;4.10;99.90;;;4.29;79.60;99339.38;5073276;28;20172;-70
2021/12/01 05:34:23;;;;;;;13.07;3.42;;;4.20;1.00;;;4.32;79.52;99332.78;5071016;28;20299;-71
2021/12/01 05:36:53;;;;;;;12.57;4.68;;;4.20;1.00;;;4.35;79.47;99327.06;5073495;28;20275;-70
2021/12/01 05:39:23;;;;;;;14.25;3.35;;;4.30;99.90;;;4.35;79.80;99316.34;5073386;28;20267;-70
2021/12/01 05:41:52;;;;;;;11.30;3.67;;;4.30;99.90;;;4.32;79.71;99316.72;5073516;28;20182;-70
2021/12/01 05:44:21;;;;;;;8.73;3.35;;;4.30;99.90;;;4.25;80.42;99305.19;5073471;28;20207;-73
2021/12/01 05:46:50;;;;;;;13.32;3.25;;;4.20;1.00;;;4.37;80.03;99301.72;5072141;28;20295;-71
2021/12/01 05:49:19;;;;;;;17.83;4.40;;;4.20;1.00;;;4.31;80.13;99289.13;5073070;28;20172;-70
2021/12/01 05:51:47;;;;;;;15.75;4.03;;;4.30;44.30;;;4.30;80.20;99289.34;5073398;28;20287;-69
2021/12/01 05:54:16;;;;;;;6.13;2.97;;;4.20;95.80;;;4.22;80.24;99274.25;5072710;28;20210;-71
2021/12/01 05:56:46;;;;;;;10.40;4.18;;;4.20;99.90;;;4.22;80.65;99257.38;5072974;28;20203;-69
2021/12/01 05:59:15;;;;;;;8.15;3.50;;;4.20;99.90;;;4.29;80.72;99252.88;5073305;28;20200;-72
2021/12/01 06:01:44;;;;;;;7.90;3.08;;;4.30;99.90;;;4.24;80.81;99239.25;5073170;28;20173;-70
2021/12/01 06:04:13;;;;;;;9.68;5.00;;;4.20;99.90;;;4.30;80.67;99228.59;5073159;28;20226;-70
2021/12/01 06:06:42;;;;;;;9.90;2.95;;;4.20;99.90;;;4.41;80.74;99231.66;5073098;28;20198;-70
2021/12/01 06:09:10;;;;;;;12.45;3.95;;;4.30;99.90;;;4.37;80.92;99229.41;5073334;28;20477;-70
2021/12/01 06:11:40;;;;;;;9.23;4.03;;;4.30;99.90;;;4.34;80.89;99220.97;5073260;28;20267;-71
2021/12/01 06:14:13;;;;;;;8.82;2.95;;;4.30;99.90;;;4.31;81.27;99211.47;5072989;28;20239;-71
2021/12/01 06:16:43;;;;;;;12.00;4.97;;;4.30;99.90;;;4.43;80.98;99210.88;5072918;28;20226;-71
2021/12/01 06:19:12;;;;;;;7.68;4.10;;;4.30;99.90;;;4.40;81.25;99203.25;5075377;28;20680;-71
2021/12/01 06:21:41;;;;;;;12.57;4.72;;;4.30;99.90;;;4.42;81.14;99198.50;5072692;28;20207;-71
2021/12/01 06:24:10;;;;;;;12.65;4.30;;;4.30;99.90;;;4.40;81.26;99196.06;5072411;28;20227;-69
2021/12/01 06:26:39;;;;;;;13.88;6.05;;;4.30;99.90;;;4.42;81.42;99185.13;5072316;28;20576;-71
2021/12/01 06:29:07;;;;;;;13.20;5.53;;;4.40;99.90;;;4.60;81.20;99186.16;5071333;28;20195;-71
2021/12/01 06:31:38;;;;;;;7.28;4.00;;;4.40;99.90;;;4.44;81.43;99180.41;5072421;28;20191;-71
2021/12/01 06:34:07;;;;;;;9.05;4.05;;;4.50;99.90;;;4.43;81.74;99174.22;5072221;28;20210;-70
2021/12/01 06:36:35;;;;;;;5.95;5.00;;;4.40;99.90;;;4.27;82.05;99166.56;5072661;28;20632;-71
2021/12/01 06:39:05;;;;;;;8.43;5.05;;;4.30;99.90;;;4.32;81.98;99162.25;5072398;28;20173;-70
2021/12/01 06:41:34;;;;;;;10.85;5.93;;;4.30;99.90;;;4.53;81.50;99158.56;5072550;28;20263;-71
2021/12/01 06:44:05;;;;;;;7.60;4.88;;;4.50;99.90;;;4.54;81.76;99148.69;5071123;28;20236;-70
2021/12/01 06:46:34;;;;;;;6.97;5.30;;;4.50;99.90;;;4.59;81.63;99156.94;5072212;28;20184;-71
2021/12/01 06:49:06;;;;;;;10.40;6.00;;;4.50;99.90;;;4.60;81.66;99148.66;5072213;28;20189;-70
2021/12/01 06:51:34;;;;;;;13.27;7.47;;;4.50;99.90;;;4.59;81.44;99141.69;5072459;28;20251;-70
2021/12/01 06:54:04;;;;;;;15.43;6.32;;;4.60;99.90;;;4.59;81.57;99133.66;5054526;28;20295;-70
2021/12/01 06:56:33;;;;;;;8.23;5.65;;;4.60;99.90;;;4.64;81.78;99128.50;5054138;28;20246;-71
2021/12/01 06:59:03;;;;;;;10.73;6.65;;;4.60;99.90;;;4.54;82.01;99133.44;5061836;28;20188;-72
2021/12/01 07:01:32;;;;;;;8.40;5.35;;;4.50;99.90;;;4.69;81.95;99130.53;5070706;28;20659;-71
2021/12/01 07:04:01;;;;;;;9.38;6.45;;;4.60;99.90;;;4.77;81.90;99133.84;5071555;28;20200;-71
2021/12/01 07:06:32;;;;;;;7.55;5.68;;;4.70;99.90;;;4.67;82.04;99112.00;5067041;28;20305;-71
2021/12/01 07:09:01;;;;;;;10.13;6.50;;;4.70;99.90;;;4.69;82.09;99109.13;5071755;28;20688;-71
2021/12/01 07:11:30;;;;;;;7.80;6.35;;;4.60;99.90;;;4.78;81.77;99108.69;5070905;28;20226;-71
2021/12/01 07:13:59;;;;;;;7.47;5.30;;;4.70;99.90;;;4.80;81.75;99106.59;5062384;28;20310;-71
2021/12/01 07:16:29;;;;;;;16.15;6.82;;;4.70;99.90;;;4.73;82.45;99092.41;5063496;28;20200;-71
2021/12/01 07:18:58;;;;;;;8.20;5.35;;;4.70;99.90;;;4.72;82.49;99088.06;5065640;28;20184;-71
2021/12/01 07:21:27;;;;;;;8.00;6.05;;;4.70;99.90;;;4.78;82.75;99071.19;5071752;28;20176;-71
2021/12/01 07:23:57;;;;;;;9.60;5.93;;;4.70;99.90;;;4.85;82.94;99070.31;5071460;28;20291;-70
2021/12/01 07:26:26;;;;;;;8.48;5.93;;;4.70;99.90;;;5.07;81.93;99066.38;5060899;28;20280;-70
2021/12/01 07:28:55;;;;;;;8.32;4.97;;;4.90;99.90;;;5.01;82.10;99064.50;5051865;28;20273;-70
2021/12/01 07:31:23;;;;;;;9.95;5.70;;;4.90;99.90;;;4.97;82.43;99037.31;5070539;28;20230;-69
2021/12/01 07:33:52;;;;;;;11.70;8.02;;;5.00;99.90;;;5.25;82.15;99039.69;5071645;28;20298;-72
2021/12/01 07:36:21;;;;;;;10.70;6.30;;;5.00;99.90;;;5.04;82.48;99027.38;5071245;28;20262;-70
2021/12/01 07:38:50;;;;;;;9.02;5.82;;;5.00;99.90;;;5.15;82.62;99023.22;5072140;28;20691;-70
2021/12/01 07:41:21;;;;;;;10.75;6.20;;;5.10;99.90;;;5.23;82.69;99022.97;5072306;28;20200;-69
2021/12/01 07:43:50;;;;;;;7.30;6.57;;;5.10;99.90;;;5.13;82.74;99015.38;5073067;28;20747;-70
2021/12/01 07:46:19;;;;;;;8.05;7.25;;;5.10;99.90;;;5.41;82.43;99007.03;5069283;28;20291;-70
2021/12/01 07:48:48;;;;;;;11.00;7.25;;;5.20;99.90;;;5.33;82.51;99004.56;5071914;28;20181;-71
2021/12/01 07:51:17;;;;;;;10.07;6.75;;;5.30;99.90;;;5.26;83.05;98995.75;5073030;28;20184;-70
2021/12/01 07:53:46;;;;;;;7.70;7.00;;;5.30;99.90;;;5.23;83.44;98988.09;5072385;28;20204;-72
2021/12/01 07:56:15;;;;;;;10.98;7.97;;;5.30;99.90;;;5.51;82.85;98985.09;5070493;28;20292;-71
2021/12/01 07:58:45;;;;;;;9.10;7.50;;;5.40;99.90;;;5.52;82.74;98982.16;5075311;28;20661;-71
2021/12/01 08:01:14;;;;;;;7.55;6.47;;;5.40;99.90;;;5.64;82.81;98975.09;5073780;28;20191;-71
2021/12/01 08:03:44;;;;;;;7.80;7.07;;;5.50;99.90;;;5.62;82.78;98966.41;5074952;28;20231;-71
2021/12/01 08:06:12;;;;;;;11.18;8.57;;;5.50;99.90;;;5.65;82.94;98957.97;5074147;28;20252;-71
2021/12/01 08:08:41;;;;;;;10.70;7.90;;;5.60;99.90;;;5.78;82.85;98959.72;5075325;28;20283;-71
2021/12/01 08:11:10;;;;;;;9.18;8.27;;;5.70;99.90;;;5.85;82.66;98959.66;5074996;28;20255;-70
2021/12/01 08:13:39;;;;;;;9.80;8.90;;;5.70;99.90;;;5.87;82.86;98957.59;5068838;28;20222;-72
2021/12/01 08:16:13;;;;;;;14.93;7.97;;;5.80;99.90;;;5.93;82.68;98954.88;5070327;28;20695;-71
2021/12/01 08:18:42;;;;;;;10.68;9.57;;;5.90;99.90;;;6.05;82.98;98952.31;5074731;28;20251;-71
2021/12/01 08:21:11;;;;;;;9.43;8.43;;;5.90;99.90;;;6.07;82.39;98953.72;5074993;28;20212;-72
2021/12/01 08:23:39;;;;;;;10.02;8.68;;;5.90;99.90;;;6.02;82.85;98942.00;5074191;28;20298;-72
2021/12/01 08:26:08;;;;;;;8.85;7.85;;;6.00;99.90;;;6.20;82.51;98931.28;5072258;28;20188;-71
2021/12/01 08:28:37;;;;;;;9.48;8.57;;;6.10;99.90;;;6.15;82.96;98933.81;5074614;28;20263;-69
2021/12/01 08:31:06;;;;;;;8.70;7.93;;;6.10;99.90;;;6.34;82.84;98935.47;5074728;28;20203;-71
2021/12/01 08:33:36;;;;;;;10.07;9.05;;;6.20;99.90;;;6.27;82.72;98925.84;5074944;28;20247;-71
2021/12/01 08:36:05;;;;;;;10.05;9.05;;;6.20;99.90;;;6.36;82.56;98928.03;5073244;28;20234;-70
2021/12/01 08:38:34;;;;;;;9.00;8.20;;;6.20;99.90;;;6.47;81.92;98910.34;5075593;28;20584;-70
2021/12/01 08:41:04;;;;;;;8.73;7.93;;;6.30;99.90;;;6.36;82.38;98919.97;5019366;28;20692;-71
2021/12/01 08:43:33;;;;;;;8.82;7.90;;;6.30;99.90;;;6.41;82.50;98911.25;5057104;28;20266;-71
2021/12/01 08:46:04;;;;;;;9.73;8.82;;;6.30;99.90;;;6.60;81.84;98906.69;5051804;28;20217;-71
2021/12/01 08:48:35;;;;;;;9.90;9.00;;;6.40;99.90;;;6.55;81.88;98899.28;5054302;28;20169;-71
2021/12/01 08:51:06;;;;;;;8.90;7.53;;;6.50;99.90;;;6.60;81.61;98887.88;5042010;28;20205;-71
2021/12/01 08:53:39;;;;;;;9.50;8.50;;;6.50;99.90;;;6.70;81.05;98894.38;5033178;28;20693;-71
2021/12/01 08:56:09;;;;;;;8.13;7.35;;;6.60;99.90;;;6.76;81.29;98892.66;5042753;28;20200;-71
2021/12/01 08:58:39;;;;;;;9.10;8.20;;;6.60;99.90;;;6.74;81.28;98884.81;5052941;28;20197;-71
2021/12/01 09:01:08;;;;;;;7.88;7.13;;;6.60;99.90;;;6.79;81.15;98886.81;5050795;28;20228;-70
2021/12/01 09:03:38;;;;;;;8.38;7.57;;;6.70;99.90;;;6.79;81.21;98881.44;5045056;28;20216;-69
2021/12/01 09:06:08;;;;;;;8.07;7.30;;;6.70;99.90;;;6.66;81.39;98882.44;5046770;28;20264;-71
2021/12/01 09:08:37;;;;;;;9.25;8.35;;;6.60;99.90;;;6.78;81.15;98883.28;5046934;28;20264;-71
2021/12/01 09:11:07;;;;;;;9.57;8.68;;;6.70;99.90;;;6.89;80.81;98876.34;5053062;28;20857;-72
2021/12/01 09:13:37;;;;;;;7.43;6.28;;;6.70;99.90;;;6.70;81.01;98872.88;5052651;28;20224;-70
2021/12/01 09:16:07;;;;;;;8.77;7.97;;;6.70;99.90;;;6.76;81.00;98865.75;5043403;28;20205;-70
2021/12/01 09:18:40;;;;;;;7.68;6.97;;;6.70;99.90;;;6.79;80.92;98858.06;5053438;28;20177;-71
2021/12/01 09:21:10;;;;;;;6.95;6.43;;;6.70;99.90;;;6.82;80.49;98854.13;5053394;28;20181;-72
2021/12/01 09:23:40;;;;;;;7.95;6.88;;;6.80;99.90;;;6.84;80.82;98854.69;5053445;28;20634;-71
2021/12/01 09:26:09;;;;;;;6.00;5.40;;;6.80;99.90;;;6.97;80.30;98857.22;5052703;28;20638;-72
2021/12/01 09:28:38;;;;;;;6.35;5.75;;;6.80;99.90;;;7.01;80.04;98847.66;5052051;28;20295;-71
2021/12/01 09:31:07;;;;;;;6.85;6.15;;;6.90;99.90;;;6.96;80.06;98840.25;5053294;28;20605;-71
2021/12/01 09:33:35;;;;;;;7.97;7.20;;;6.90;99.90;;;6.87;80.37;98849.66;5054320;28;20498;-71
2021/12/01 09:36:06;;;;;;;6.90;6.20;;;6.80;99.90;;;7.13;79.69;98847.66;5050698;28;20208;-71
2021/12/01 09:38:35;;;;;;;6.32;5.75;;;6.90;99.90;;;7.00;80.01;98840.63;5054416;28;20179;-71
2021/12/01 09:41:05;;;;;;;8.00;7.20;;;6.90;99.90;;;6.94;79.72;98828.09;5052276;28;20284;-71
2021/12/01 09:43:34;;;;;;;5.72;5.10;;;6.80;99.90;;;7.04;79.27;98830.22;5052466;28;20656;-72
2021/12/01 09:46:08;;;;;;;5.75;5.35;;;6.90;99.90;;;7.14;79.08;98820.56;5051455;28;20189;-70
2021/12/01 09:48:38;;;;;;;8.15;6.90;;;7.00;99.90;;;7.09;78.86;98828.47;5041025;28;20238;-71
2021/12/01 09:51:17;;;;;;;7.20;6.10;;;7.00;99.90;;;7.12;78.57;98817.25;5057954;28;20631;-71
2021/12/01 09:53:48;;;;;;;4.20;3.85;;;7.00;99.90;;;7.06;78.64;98806.63;5057301;28;20294;-70
2021/12/01 09:56:17;;;;;;;5.63;4.97;;;7.00;99.90;;;7.14;78.58;98801.72;5054253;28;20200;-72
2021/12/01 09:58:48;;;;;;;5.10;3.92;;;7.00;99.90;;;7.29;78.18;98795.91;5052146;28;20264;-70
2021/12/01 10:01:23;;;;;;;5.57;4.82;;;7.10;99.90;;;7.26;78.20;98791.78;5041312;28;20604;-70
2021/12/01 10:03:55;;;;;;;4.93;4.53;;;7.10;99.90;;;7.23;77.82;98781.50;5044813;28;20736;-72
2021/12/01 10:06:38;;;;;;;4.60;4.30;;;7.10;99.90;;;7.22;77.76;98777.16;5053776;28;20191;-70
2021/12/01 10:09:15;;;;;;;5.00;4.50;;;7.10;99.90;;;7.28;77.55;98768.19;5054781;28;20200;-71
2021/12/01 10:11:44;;;;;;;5.57;5.07;;;7.10;99.90;;;7.22;77.34;98761.03;5055766;28;20261;-71
2021/12/01 10:14:20;;;;;;;4.05;3.65;;;7.10;99.90;;;7.23;77.60;98749.22;5041070;28;20753;-72
2021/12/01 10:16:59;;;;;;;5.15;3.85;;;7.10;99.90;;;7.31;77.27;98756.94;5050119;28;20270;-70
2021/12/01 10:19:37;;;;;;;4.25;3.13;;;7.20;99.90;;;7.31;77.20;98756.94;5041038;28;20209;-69
2021/12/01 10:22:12;;;;;;;3.65;3.35;;;7.20;99.90;;;7.18;76.95;98745.59;5044949;28;20195;-70
2021/12/01 10:24:45;;;;;;;5.72;3.35;;;7.10;99.90;;;7.37;77.06;98747.94;5048511;28;20216;-70
2021/12/01 10:27:15;;;;;;;5.53;4.10;;;7.20;99.90;;;7.23;76.89;98735.78;5057206;28;20209;-69
2021/12/01 10:29:48;;;;;;;4.82;4.25;;;7.20;99.90;;;7.29;77.37;98734.03;5060191;28;20621;-70
2021/12/01 10:32:20;;;;;;;4.25;3.85;;;7.20;99.90;;;7.39;77.45;98720.81;5043709;28;20200;-71
2021/12/01 10:34:53;;;;;;;5.50;3.47;;;7.20;99.90;;;7.28;77.30;98718.94;5057962;28;20208;-71
2021/12/01 10:37:26;;;;;;;4.82;3.55;;;7.20;99.90;;;7.36;77.04;98710.50;5064867;28;20215;-71
2021/12/01 10:40:12;;;;;;;4.40;4.00;;;7.20;99.90;;;7.48;76.25;98719.41;5056623;28;20268;-72
2021/12/01 10:42:54;;;;;;;4.60;3.00;;;7.30;99.90;;;7.47;76.57;98708.88;5044432;28;20184;-70
2021/12/01 10:45:27;;;;;;;5.00;3.08;;;7.30;99.90;;;7.47;76.36;98706.19;5047836;28;20276;-69